sensor_id;sensor_type;location;lat;lon;timestamp;temperature;humidity
44477;DHT22;30180;44.788;10.366;2023-02-03T00:00:43;17.60;58.00
44477;DHT22;30180;44.788;10.366;2023-02-03T00:03:11;17.60;58.00
44477;DHT22;30180;44.788;10.366;2023-02-03T00:05:41;17.50;58.00
44477;DHT22;30180;44.788;10.366;2023-02-03T00:08:10;17.50;58.00
44477;DHT22;30180;44.788;10.366;2023-02-03T00:10:39;17.50;58.00
44477;DHT22;30180;44.788;10.366;2023-02-03T00:13:08;17.50;58.00
44477;DHT22;30180;44.788;10.366;2023-02-03T00:15:36;17.50;58.00
44477;DHT22;30180;44.788;10.366;2023-02-03T00:18:04;17.50;58.00
44477;DHT22;30180;44.788;10.366;2023-02-03T00:20:33;17.50;58.00
44477;DHT22;30180;44.788;10.366;2023-02-03T00:23:07;17.50;58.00
44477;DHT22;30180;44.788;10.366;2023-02-03T00:25:35;17.50;58.00
44477;DHT22;30180;44.788;10.366;2023-02-03T00:28:04;17.50;58.00
44477;DHT22;30180;44.788;10.366;2023-02-03T00:30:33;17.50;58.00
44477;DHT22;30180;44.788;10.366;2023-02-03T00:33:02;17.50;58.00
44477;DHT22;30180;44.788;10.366;2023-02-03T00:35:31;17.50;58.00
44477;DHT22;30180;44.788;10.366;2023-02-03T00:37:59;17.50;58.00
44477;DHT22;30180;44.788;10.366;2023-02-03T00:40:29;17.50;58.00
44477;DHT22;30180;44.788;10.366;2023-02-03T00:42:57;17.50;58.00
44477;DHT22;30180;44.788;10.366;2023-02-03T00:45:25;17.40;58.00
44477;DHT22;30180;44.788;10.366;2023-02-03T00:47:53;17.50;58.00
44477;DHT22;30180;44.788;10.366;2023-02-03T00:50:22;17.40;58.00
44477;DHT22;30180;44.788;10.366;2023-02-03T00:52:50;17.50;58.00
44477;DHT22;30180;44.788;10.366;2023-02-03T00:55:18;17.40;58.00
44477;DHT22;30180;44.788;10.366;2023-02-03T00:57:48;17.40;57.90
44477;DHT22;30180;44.788;10.366;2023-02-03T01:00:17;17.40;57.90
44477;DHT22;30180;44.788;10.366;2023-02-03T01:02:46;17.40;57.90
44477;DHT22;30180;44.788;10.366;2023-02-03T01:05:14;17.40;58.00
44477;DHT22;30180;44.788;10.366;2023-02-03T01:07:42;17.40;58.00
44477;DHT22;30180;44.788;10.366;2023-02-03T01:10:10;17.40;58.00
44477;DHT22;30180;44.788;10.366;2023-02-03T01:12:40;17.40;58.00
44477;DHT22;30180;44.788;10.366;2023-02-03T01:15:10;17.40;58.00
44477;DHT22;30180;44.788;10.366;2023-02-03T01:17:38;17.40;58.00
44477;DHT22;30180;44.788;10.366;2023-02-03T01:20:08;17.40;58.00
44477;DHT22;30180;44.788;10.366;2023-02-03T01:22:38;17.40;58.00
44477;DHT22;30180;44.788;10.366;2023-02-03T01:25:07;17.40;58.00
44477;DHT22;30180;44.788;10.366;2023-02-03T01:27:35;17.40;58.00
44477;DHT22;30180;44.788;10.366;2023-02-03T01:30:04;17.40;58.00
44477;DHT22;30180;44.788;10.366;2023-02-03T01:32:34;17.40;58.00
44477;DHT22;30180;44.788;10.366;2023-02-03T01:35:02;17.40;58.00
44477;DHT22;30180;44.788;10.366;2023-02-03T01:37:30;17.40;58.00
44477;DHT22;30180;44.788;10.366;2023-02-03T01:39:59;17.30;58.00
44477;DHT22;30180;44.788;10.366;2023-02-03T01:42:29;17.30;58.00
44477;DHT22;30180;44.788;10.366;2023-02-03T01:44:59;17.30;58.00
44477;DHT22;30180;44.788;10.366;2023-02-03T01:47:30;17.30;58.00
44477;DHT22;30180;44.788;10.366;2023-02-03T01:50:10;17.30;58.00
44477;DHT22;30180;44.788;10.366;2023-02-03T01:52:41;17.30;58.00
44477;DHT22;30180;44.788;10.366;2023-02-03T01:55:11;17.30;58.00
44477;DHT22;30180;44.788;10.366;2023-02-03T01:57:42;17.30;58.00
44477;DHT22;30180;44.788;10.366;2023-02-03T02:00:12;17.30;58.00
44477;DHT22;30180;44.788;10.366;2023-02-03T02:02:42;17.30;58.00
44477;DHT22;30180;44.788;10.366;2023-02-03T02:05:18;17.30;58.00
44477;DHT22;30180;44.788;10.366;2023-02-03T02:07:47;17.30;58.00
44477;DHT22;30180;44.788;10.366;2023-02-03T02:10:16;17.30;58.00
44477;DHT22;30180;44.788;10.366;2023-02-03T02:12:44;17.30;58.00
44477;DHT22;30180;44.788;10.366;2023-02-03T02:15:12;17.30;58.00
44477;DHT22;30180;44.788;10.366;2023-02-03T02:17:54;17.30;58.10
44477;DHT22;30180;44.788;10.366;2023-02-03T02:20:32;17.20;58.00
44477;DHT22;30180;44.788;10.366;2023-02-03T02:26:26;17.20;58.00
44477;DHT22;30180;44.788;10.366;2023-02-03T02:32:24;17.20;58.00
44477;DHT22;30180;44.788;10.366;2023-02-03T02:35:02;17.20;58.60
44477;DHT22;30180;44.788;10.366;2023-02-03T02:37:38;17.30;58.10
44477;DHT22;30180;44.788;10.366;2023-02-03T02:40:18;17.20;58.00
44477;DHT22;30180;44.788;10.366;2023-02-03T02:42:58;17.20;58.00
44477;DHT22;30180;44.788;10.366;2023-02-03T02:45:30;17.20;58.00
44477;DHT22;30180;44.788;10.366;2023-02-03T02:48:05;17.20;58.10
44477;DHT22;30180;44.788;10.366;2023-02-03T02:50:40;17.20;58.10
44477;DHT22;30180;44.788;10.366;2023-02-03T02:53:10;17.20;58.00
44477;DHT22;30180;44.788;10.366;2023-02-03T02:55:41;17.20;58.00
44477;DHT22;30180;44.788;10.366;2023-02-03T02:58:12;17.20;58.10
44477;DHT22;30180;44.788;10.366;2023-02-03T03:00:42;17.20;58.10
44477;DHT22;30180;44.788;10.366;2023-02-03T03:03:17;17.20;58.10
44477;DHT22;30180;44.788;10.366;2023-02-03T03:05:50;17.20;58.10
44477;DHT22;30180;44.788;10.366;2023-02-03T03:08:21;17.20;58.10
44477;DHT22;30180;44.788;10.366;2023-02-03T03:10:51;17.20;58.10
44477;DHT22;30180;44.788;10.366;2023-02-03T03:13:23;17.20;58.10
44477;DHT22;30180;44.788;10.366;2023-02-03T03:15:53;17.20;58.10
44477;DHT22;30180;44.788;10.366;2023-02-03T03:18:27;17.10;58.10
44477;DHT22;30180;44.788;10.366;2023-02-03T03:20:59;17.20;58.10
44477;DHT22;30180;44.788;10.366;2023-02-03T03:23:35;17.10;58.10
44477;DHT22;30180;44.788;10.366;2023-02-03T03:26:09;17.10;58.00
44477;DHT22;30180;44.788;10.366;2023-02-03T03:28:44;17.10;58.10
44477;DHT22;30180;44.788;10.366;2023-02-03T03:31:14;17.10;58.00
44477;DHT22;30180;44.788;10.366;2023-02-03T03:33:45;17.10;58.10
44477;DHT22;30180;44.788;10.366;2023-02-03T03:36:21;17.10;58.10
44477;DHT22;30180;44.788;10.366;2023-02-03T03:38:55;17.10;58.10
44477;DHT22;30180;44.788;10.366;2023-02-03T03:41:34;17.10;58.10
44477;DHT22;30180;44.788;10.366;2023-02-03T03:44:09;17.10;58.10
44477;DHT22;30180;44.788;10.366;2023-02-03T03:46:42;17.10;58.10
44477;DHT22;30180;44.788;10.366;2023-02-03T03:49:13;17.10;58.10
44477;DHT22;30180;44.788;10.366;2023-02-03T03:51:46;17.10;58.10
44477;DHT22;30180;44.788;10.366;2023-02-03T03:54:18;17.10;58.10
44477;DHT22;30180;44.788;10.366;2023-02-03T03:56:50;17.10;58.00
44477;DHT22;30180;44.788;10.366;2023-02-03T03:59:21;17.10;58.10
44477;DHT22;30180;44.788;10.366;2023-02-03T04:01:51;17.10;58.10
44477;DHT22;30180;44.788;10.366;2023-02-03T04:04:22;17.10;58.10
44477;DHT22;30180;44.788;10.366;2023-02-03T04:06:52;17.10;58.10
44477;DHT22;30180;44.788;10.366;2023-02-03T04:09:20;17.10;58.10
44477;DHT22;30180;44.788;10.366;2023-02-03T04:11:49;17.00;58.00
44477;DHT22;30180;44.788;10.366;2023-02-03T04:14:30;17.10;58.10
44477;DHT22;30180;44.788;10.366;2023-02-03T04:16:59;17.10;58.10
44477;DHT22;30180;44.788;10.366;2023-02-03T04:19:29;17.10;58.10
44477;DHT22;30180;44.788;10.366;2023-02-03T04:21:57;17.00;58.00
44477;DHT22;30180;44.788;10.366;2023-02-03T04:24:25;17.00;58.10
44477;DHT22;30180;44.788;10.366;2023-02-03T04:26:54;17.00;58.00
44477;DHT22;30180;44.788;10.366;2023-02-03T04:29:22;17.00;58.10
44477;DHT22;30180;44.788;10.366;2023-02-03T04:31:50;17.10;58.20
44477;DHT22;30180;44.788;10.366;2023-02-03T04:34:19;17.10;58.20
44477;DHT22;30180;44.788;10.366;2023-02-03T04:36:48;17.10;58.20
44477;DHT22;30180;44.788;10.366;2023-02-03T04:39:17;17.10;58.20
44477;DHT22;30180;44.788;10.366;2023-02-03T04:41:46;17.10;58.20
44477;DHT22;30180;44.788;10.366;2023-02-03T04:44:15;17.10;58.20
44477;DHT22;30180;44.788;10.366;2023-02-03T04:46:43;17.10;58.20
44477;DHT22;30180;44.788;10.366;2023-02-03T04:49:12;17.10;58.20
44477;DHT22;30180;44.788;10.366;2023-02-03T04:51:40;17.10;58.30
44477;DHT22;30180;44.788;10.366;2023-02-03T04:54:11;17.10;58.30
44477;DHT22;30180;44.788;10.366;2023-02-03T04:56:39;17.10;58.30
44477;DHT22;30180;44.788;10.366;2023-02-03T04:59:08;17.10;58.30
44477;DHT22;30180;44.788;10.366;2023-02-03T05:01:36;17.20;58.40
44477;DHT22;30180;44.788;10.366;2023-02-03T05:04:05;17.20;58.40
44477;DHT22;30180;44.788;10.366;2023-02-03T05:06:33;17.20;58.40
44477;DHT22;30180;44.788;10.366;2023-02-03T05:09:01;17.20;58.40
44477;DHT22;30180;44.788;10.366;2023-02-03T05:11:31;17.20;58.40
44477;DHT22;30180;44.788;10.366;2023-02-03T05:13:59;17.20;58.40
44477;DHT22;30180;44.788;10.366;2023-02-03T05:16:27;17.20;58.40
44477;DHT22;30180;44.788;10.366;2023-02-03T05:18:56;17.20;58.40
44477;DHT22;30180;44.788;10.366;2023-02-03T05:21:24;17.20;58.40
44477;DHT22;30180;44.788;10.366;2023-02-03T05:23:52;17.20;58.40
44477;DHT22;30180;44.788;10.366;2023-02-03T05:26:20;17.20;58.40
44477;DHT22;30180;44.788;10.366;2023-02-03T05:28:50;17.20;58.40
44477;DHT22;30180;44.788;10.366;2023-02-03T05:31:20;17.20;58.40
44477;DHT22;30180;44.788;10.366;2023-02-03T05:33:49;17.30;58.40
44477;DHT22;30180;44.788;10.366;2023-02-03T05:36:17;17.20;58.40
44477;DHT22;30180;44.788;10.366;2023-02-03T05:38:45;17.30;58.40
44477;DHT22;30180;44.788;10.366;2023-02-03T05:41:13;17.30;58.40
44477;DHT22;30180;44.788;10.366;2023-02-03T05:44:00;17.20;58.40
44477;DHT22;30180;44.788;10.366;2023-02-03T05:46:29;17.30;58.40
44477;DHT22;30180;44.788;10.366;2023-02-03T05:48:57;17.30;58.40
44477;DHT22;30180;44.788;10.366;2023-02-03T05:51:25;17.20;58.40
44477;DHT22;30180;44.788;10.366;2023-02-03T05:53:54;17.30;58.40
44477;DHT22;30180;44.788;10.366;2023-02-03T05:56:22;17.30;58.40
44477;DHT22;30180;44.788;10.366;2023-02-03T05:58:50;17.30;58.40
44477;DHT22;30180;44.788;10.366;2023-02-03T06:01:21;17.30;58.40
44477;DHT22;30180;44.788;10.366;2023-02-03T06:03:49;17.30;58.40
44477;DHT22;30180;44.788;10.366;2023-02-03T06:06:17;17.20;58.30
44477;DHT22;30180;44.788;10.366;2023-02-03T06:08:46;17.20;58.30
44477;DHT22;30180;44.788;10.366;2023-02-03T06:11:14;17.20;58.30
44477;DHT22;30180;44.788;10.366;2023-02-03T06:13:42;17.20;58.30
44477;DHT22;30180;44.788;10.366;2023-02-03T06:16:10;17.30;58.40
44477;DHT22;30180;44.788;10.366;2023-02-03T06:18:40;17.30;58.40
44477;DHT22;30180;44.788;10.366;2023-02-03T06:21:09;17.20;58.30
44477;DHT22;30180;44.788;10.366;2023-02-03T06:23:37;17.20;58.30
44477;DHT22;30180;44.788;10.366;2023-02-03T06:26:05;17.20;58.30
44477;DHT22;30180;44.788;10.366;2023-02-03T06:28:34;17.20;58.30
44477;DHT22;30180;44.788;10.366;2023-02-03T06:31:04;17.20;58.30
44477;DHT22;30180;44.788;10.366;2023-02-03T06:33:32;17.20;58.30
44477;DHT22;30180;44.788;10.366;2023-02-03T06:36:02;17.20;58.20
44477;DHT22;30180;44.788;10.366;2023-02-03T06:38:31;17.20;58.20
44477;DHT22;30180;44.788;10.366;2023-02-03T06:40:59;17.20;58.30
44477;DHT22;30180;44.788;10.366;2023-02-03T06:43:27;17.20;58.30
44477;DHT22;30180;44.788;10.366;2023-02-03T06:45:55;17.30;58.30
44477;DHT22;30180;44.788;10.366;2023-02-03T06:48:24;17.30;58.40
44477;DHT22;30180;44.788;10.366;2023-02-03T06:50:52;17.30;58.40
44477;DHT22;30180;44.788;10.366;2023-02-03T06:53:22;17.40;58.40
44477;DHT22;30180;44.788;10.366;2023-02-03T06:55:51;17.40;58.40
44477;DHT22;30180;44.788;10.366;2023-02-03T06:58:19;17.40;59.00
44477;DHT22;30180;44.788;10.366;2023-02-03T07:00:47;17.40;58.40
44477;DHT22;30180;44.788;10.366;2023-02-03T07:03:17;17.40;59.00
44477;DHT22;30180;44.788;10.366;2023-02-03T07:05:45;17.50;58.40
44477;DHT22;30180;44.788;10.366;2023-02-03T07:08:13;17.50;58.50
44477;DHT22;30180;44.788;10.366;2023-02-03T07:10:43;17.50;58.50
44477;DHT22;30180;44.788;10.366;2023-02-03T07:13:11;17.50;58.40
44477;DHT22;30180;44.788;10.366;2023-02-03T07:15:39;17.50;58.40
44477;DHT22;30180;44.788;10.366;2023-02-03T07:18:08;17.60;58.50
44477;DHT22;30180;44.788;10.366;2023-02-03T07:20:37;17.60;58.50
44477;DHT22;30180;44.788;10.366;2023-02-03T07:23:05;17.60;58.50
44477;DHT22;30180;44.788;10.366;2023-02-03T07:25:34;17.60;58.50
44477;DHT22;30180;44.788;10.366;2023-02-03T07:28:04;17.60;58.50
44477;DHT22;30180;44.788;10.366;2023-02-03T07:30:32;17.60;58.50
44477;DHT22;30180;44.788;10.366;2023-02-03T07:33:01;17.60;58.40
44477;DHT22;30180;44.788;10.366;2023-02-03T07:35:29;17.60;58.40
44477;DHT22;30180;44.788;10.366;2023-02-03T07:37:57;17.70;58.50
44477;DHT22;30180;44.788;10.366;2023-02-03T07:40:26;17.60;58.30
44477;DHT22;30180;44.788;10.366;2023-02-03T07:42:54;17.70;58.40
44477;DHT22;30180;44.788;10.366;2023-02-03T07:45:24;17.60;58.30
44477;DHT22;30180;44.788;10.366;2023-02-03T07:47:52;17.60;58.30
44477;DHT22;30180;44.788;10.366;2023-02-03T07:50:21;17.60;58.30
44477;DHT22;30180;44.788;10.366;2023-02-03T07:52:49;17.60;58.20
44477;DHT22;30180;44.788;10.366;2023-02-03T07:55:18;17.60;58.20
44477;DHT22;30180;44.788;10.366;2023-02-03T07:57:46;17.60;58.20
44477;DHT22;30180;44.788;10.366;2023-02-03T08:00:15;17.60;58.20
44477;DHT22;30180;44.788;10.366;2023-02-03T08:02:45;17.50;58.10
44477;DHT22;30180;44.788;10.366;2023-02-03T08:05:14;17.60;58.20
44477;DHT22;30180;44.788;10.366;2023-02-03T08:07:42;17.60;58.10
44477;DHT22;30180;44.788;10.366;2023-02-03T08:10:12;17.50;58.10
44477;DHT22;30180;44.788;10.366;2023-02-03T08:12:41;17.50;58.10
44477;DHT22;30180;44.788;10.366;2023-02-03T08:15:11;17.50;58.00
44477;DHT22;30180;44.788;10.366;2023-02-03T08:17:40;17.50;58.00
44477;DHT22;30180;44.788;10.366;2023-02-03T08:20:12;17.50;58.00
44477;DHT22;30180;44.788;10.366;2023-02-03T08:22:40;17.50;58.00
44477;DHT22;30180;44.788;10.366;2023-02-03T08:25:08;17.50;58.00
44477;DHT22;30180;44.788;10.366;2023-02-03T08:27:37;17.50;57.90
44477;DHT22;30180;44.788;10.366;2023-02-03T08:30:07;17.50;57.90
44477;DHT22;30180;44.788;10.366;2023-02-03T08:32:36;17.50;58.00
44477;DHT22;30180;44.788;10.366;2023-02-03T08:35:05;17.50;58.00
44477;DHT22;30180;44.788;10.366;2023-02-03T08:37:35;17.50;58.00
44477;DHT22;30180;44.788;10.366;2023-02-03T08:40:04;17.50;58.00
44477;DHT22;30180;44.788;10.366;2023-02-03T08:42:32;17.50;57.90
44477;DHT22;30180;44.788;10.366;2023-02-03T08:45:00;17.60;58.00
44477;DHT22;30180;44.788;10.366;2023-02-03T08:47:31;17.50;57.80
44477;DHT22;30180;44.788;10.366;2023-02-03T08:49:59;17.50;57.70
44477;DHT22;30180;44.788;10.366;2023-02-03T08:52:28;17.50;57.70
44477;DHT22;30180;44.788;10.366;2023-02-03T08:55:02;17.50;57.70
44477;DHT22;30180;44.788;10.366;2023-02-03T08:57:32;17.50;57.80
44477;DHT22;30180;44.788;10.366;2023-02-03T09:00:00;17.50;57.80
44477;DHT22;30180;44.788;10.366;2023-02-03T09:02:29;17.60;58.00
44477;DHT22;30180;44.788;10.366;2023-02-03T09:04:58;17.60;57.90
44477;DHT22;30180;44.788;10.366;2023-02-03T09:07:26;17.60;57.90
44477;DHT22;30180;44.788;10.366;2023-02-03T09:09:55;17.70;58.00
44477;DHT22;30180;44.788;10.366;2023-02-03T09:12:24;17.70;58.00
44477;DHT22;30180;44.788;10.366;2023-02-03T09:14:54;17.70;58.00
44477;DHT22;30180;44.788;10.366;2023-02-03T09:17:22;17.80;58.10
44477;DHT22;30180;44.788;10.366;2023-02-03T09:19:51;17.80;58.00
44477;DHT22;30180;44.788;10.366;2023-02-03T09:22:19;17.80;58.00
44477;DHT22;30180;44.788;10.366;2023-02-03T09:24:47;17.90;58.10
44477;DHT22;30180;44.788;10.366;2023-02-03T09:27:17;17.90;58.10
44477;DHT22;30180;44.788;10.366;2023-02-03T09:29:46;17.90;58.10
44477;DHT22;30180;44.788;10.366;2023-02-03T09:32:15;17.90;58.10
44477;DHT22;30180;44.788;10.366;2023-02-03T09:34:43;18.00;58.20
44477;DHT22;30180;44.788;10.366;2023-02-03T09:37:11;18.00;58.20
44477;DHT22;30180;44.788;10.366;2023-02-03T09:39:39;18.00;58.10
44477;DHT22;30180;44.788;10.366;2023-02-03T09:42:25;18.10;58.20
44477;DHT22;30180;44.788;10.366;2023-02-03T09:45:03;18.10;58.20
44477;DHT22;30180;44.788;10.366;2023-02-03T09:47:39;18.10;58.20
44477;DHT22;30180;44.788;10.366;2023-02-03T09:50:12;18.20;58.20
44477;DHT22;30180;44.788;10.366;2023-02-03T09:52:41;18.20;58.20
44477;DHT22;30180;44.788;10.366;2023-02-03T09:55:19;18.20;58.10
44477;DHT22;30180;44.788;10.366;2023-02-03T09:57:54;18.20;58.10
44477;DHT22;30180;44.788;10.366;2023-02-03T10:00:29;18.30;58.20
44477;DHT22;30180;44.788;10.366;2023-02-03T10:03:03;18.30;58.20
44477;DHT22;30180;44.788;10.366;2023-02-03T10:05:46;18.30;58.10
44477;DHT22;30180;44.788;10.366;2023-02-03T10:08:23;18.30;58.10
44477;DHT22;30180;44.788;10.366;2023-02-03T10:10:59;18.30;58.10
44477;DHT22;30180;44.788;10.366;2023-02-03T10:13:47;18.30;58.10
44477;DHT22;30180;44.788;10.366;2023-02-03T10:16:47;18.30;58.00
44477;DHT22;30180;44.788;10.366;2023-02-03T10:19:21;18.40;58.00
44477;DHT22;30180;44.788;10.366;2023-02-03T10:21:52;18.40;58.00
44477;DHT22;30180;44.788;10.366;2023-02-03T10:24:27;18.40;58.10
44477;DHT22;30180;44.788;10.366;2023-02-03T10:26:59;18.40;58.00
44477;DHT22;30180;44.788;10.366;2023-02-03T10:29:30;18.40;58.10
44477;DHT22;30180;44.788;10.366;2023-02-03T10:32:07;18.40;58.00
44477;DHT22;30180;44.788;10.366;2023-02-03T10:34:36;18.40;58.10
44477;DHT22;30180;44.788;10.366;2023-02-03T10:37:12;18.40;58.10
44477;DHT22;30180;44.788;10.366;2023-02-03T10:39:45;18.50;58.20
44477;DHT22;30180;44.788;10.366;2023-02-03T10:42:14;18.50;58.10
44477;DHT22;30180;44.788;10.366;2023-02-03T10:44:47;18.50;58.10
44477;DHT22;30180;44.788;10.366;2023-02-03T10:47:22;18.50;58.10
44477;DHT22;30180;44.788;10.366;2023-02-03T10:49:54;18.50;58.10
44477;DHT22;30180;44.788;10.366;2023-02-03T10:52:26;18.50;58.10
44477;DHT22;30180;44.788;10.366;2023-02-03T10:54:55;18.50;58.00
44477;DHT22;30180;44.788;10.366;2023-02-03T10:57:27;18.60;58.00
44477;DHT22;30180;44.788;10.366;2023-02-03T11:00:06;18.50;57.90
44477;DHT22;30180;44.788;10.366;2023-02-03T11:02:36;18.60;57.90
44477;DHT22;30180;44.788;10.366;2023-02-03T11:05:21;18.60;57.90
44477;DHT22;30180;44.788;10.366;2023-02-03T11:07:52;18.60;58.60
44477;DHT22;30180;44.788;10.366;2023-02-03T11:10:32;18.60;58.00
44477;DHT22;30180;44.788;10.366;2023-02-03T11:13:15;18.60;57.90
44477;DHT22;30180;44.788;10.366;2023-02-03T11:16:04;18.60;57.90
44477;DHT22;30180;44.788;10.366;2023-02-03T11:18:55;18.60;57.90
44477;DHT22;30180;44.788;10.366;2023-02-03T11:21:27;18.60;58.00
44477;DHT22;30180;44.788;10.366;2023-02-03T11:24:01;18.60;58.00
44477;DHT22;30180;44.788;10.366;2023-02-03T11:26:34;18.60;58.00
44477;DHT22;30180;44.788;10.366;2023-02-03T11:29:04;18.70;58.00
44477;DHT22;30180;44.788;10.366;2023-02-03T11:31:34;18.70;58.00
44477;DHT22;30180;44.788;10.366;2023-02-03T11:34:06;18.70;57.90
44477;DHT22;30180;44.788;10.366;2023-02-03T11:36:41;18.70;58.00
44477;DHT22;30180;44.788;10.366;2023-02-03T11:39:24;18.70;57.90
44477;DHT22;30180;44.788;10.366;2023-02-03T11:41:53;18.70;58.00
44477;DHT22;30180;44.788;10.366;2023-02-03T11:44:23;18.70;58.60
44477;DHT22;30180;44.788;10.366;2023-02-03T11:46:58;18.70;57.90
44477;DHT22;30180;44.788;10.366;2023-02-03T11:49:56;18.70;57.90
44477;DHT22;30180;44.788;10.366;2023-02-03T11:52:57;18.70;57.90
44477;DHT22;30180;44.788;10.366;2023-02-03T11:55:44;18.70;57.90
44477;DHT22;30180;44.788;10.366;2023-02-03T11:58:36;18.70;57.90
44477;DHT22;30180;44.788;10.366;2023-02-03T12:01:12;18.70;57.90
44477;DHT22;30180;44.788;10.366;2023-02-03T12:06:56;18.70;57.90
44477;DHT22;30180;44.788;10.366;2023-02-03T12:09:33;18.70;57.90
44477;DHT22;30180;44.788;10.366;2023-02-03T12:12:25;18.70;57.90
44477;DHT22;30180;44.788;10.366;2023-02-03T12:15:04;18.70;57.90
44477;DHT22;30180;44.788;10.366;2023-02-03T12:17:48;18.80;58.00
44477;DHT22;30180;44.788;10.366;2023-02-03T12:20:34;18.70;57.90
44477;DHT22;30180;44.788;10.366;2023-02-03T12:23:17;18.70;57.90
44477;DHT22;30180;44.788;10.366;2023-02-03T12:26:01;18.70;57.90
44477;DHT22;30180;44.788;10.366;2023-02-03T12:28:37;18.70;57.90
44477;DHT22;30180;44.788;10.366;2023-02-03T12:31:13;18.70;58.00
44477;DHT22;30180;44.788;10.366;2023-02-03T12:33:46;18.80;59.00
44477;DHT22;30180;44.788;10.366;2023-02-03T12:36:19;18.90;58.70
44477;DHT22;30180;44.788;10.366;2023-02-03T12:38:54;18.90;58.90
44477;DHT22;30180;44.788;10.366;2023-02-03T12:41:26;19.10;58.90
44477;DHT22;30180;44.788;10.366;2023-02-03T12:43:59;19.10;58.70
44477;DHT22;30180;44.788;10.366;2023-02-03T12:46:31;19.20;58.50
44477;DHT22;30180;44.788;10.366;2023-02-03T12:49:09;19.20;58.40
44477;DHT22;30180;44.788;10.366;2023-02-03T12:51:43;19.20;58.30
44477;DHT22;30180;44.788;10.366;2023-02-03T12:54:26;19.20;58.20
44477;DHT22;30180;44.788;10.366;2023-02-03T12:57:07;19.20;58.10
44477;DHT22;30180;44.788;10.366;2023-02-03T12:59:39;19.20;58.10
44477;DHT22;30180;44.788;10.366;2023-02-03T13:02:15;19.20;58.00
44477;DHT22;30180;44.788;10.366;2023-02-03T13:04:50;19.20;58.00
44477;DHT22;30180;44.788;10.366;2023-02-03T13:07:26;19.20;57.90
44477;DHT22;30180;44.788;10.366;2023-02-03T13:10:02;19.20;57.90
44477;DHT22;30180;44.788;10.366;2023-02-03T13:12:36;19.20;57.80
44477;DHT22;30180;44.788;10.366;2023-02-03T13:15:18;19.10;57.80
44477;DHT22;30180;44.788;10.366;2023-02-03T13:17:53;19.10;57.70
44477;DHT22;30180;44.788;10.366;2023-02-03T13:20:24;19.20;57.70
44477;DHT22;30180;44.788;10.366;2023-02-03T13:22:53;19.10;57.50
44477;DHT22;30180;44.788;10.366;2023-02-03T13:25:24;19.10;57.40
44477;DHT22;30180;44.788;10.366;2023-02-03T13:28:05;19.00;57.20
44477;DHT22;30180;44.788;10.366;2023-02-03T13:30:49;19.00;57.20
44477;DHT22;30180;44.788;10.366;2023-02-03T13:39:59;18.80;57.20
44477;DHT22;30180;44.788;10.366;2023-02-03T13:42:33;18.70;57.10
44477;DHT22;30180;44.788;10.366;2023-02-03T13:45:08;18.70;57.20
44477;DHT22;30180;44.788;10.366;2023-02-03T13:47:45;18.70;57.20
44477;DHT22;30180;44.788;10.366;2023-02-03T13:50:20;18.60;57.10
44477;DHT22;30180;44.788;10.366;2023-02-03T13:52:55;18.60;57.10
44477;DHT22;30180;44.788;10.366;2023-02-03T13:55:32;18.60;57.10
44477;DHT22;30180;44.788;10.366;2023-02-03T13:58:04;18.60;57.10
44477;DHT22;30180;44.788;10.366;2023-02-03T14:00:59;18.60;57.20
44477;DHT22;30180;44.788;10.366;2023-02-03T14:03:44;18.60;57.30
44477;DHT22;30180;44.788;10.366;2023-02-03T14:12:53;18.60;57.40
44477;DHT22;30180;44.788;10.366;2023-02-03T14:15:31;18.60;57.40
44477;DHT22;30180;44.788;10.366;2023-02-03T14:18:04;18.60;57.40
44477;DHT22;30180;44.788;10.366;2023-02-03T14:21:11;18.70;57.40
44477;DHT22;30180;44.788;10.366;2023-02-03T14:23:51;18.70;57.40
44477;DHT22;30180;44.788;10.366;2023-02-03T14:26:34;18.60;57.40
44477;DHT22;30180;44.788;10.366;2023-02-03T14:29:05;18.70;57.40
44477;DHT22;30180;44.788;10.366;2023-02-03T14:31:54;18.70;57.30
44477;DHT22;30180;44.788;10.366;2023-02-03T14:34:34;18.70;57.40
44477;DHT22;30180;44.788;10.366;2023-02-03T14:37:14;18.70;57.40
44477;DHT22;30180;44.788;10.366;2023-02-03T14:40:19;18.70;57.40
44477;DHT22;30180;44.788;10.366;2023-02-03T14:43:21;18.70;57.50
44477;DHT22;30180;44.788;10.366;2023-02-03T14:46:18;18.70;57.40
44477;DHT22;30180;44.788;10.366;2023-02-03T14:49:10;18.70;57.50
44477;DHT22;30180;44.788;10.366;2023-02-03T14:51:55;18.70;57.40
44477;DHT22;30180;44.788;10.366;2023-02-03T14:54:42;18.70;57.50
44477;DHT22;30180;44.788;10.366;2023-02-03T14:57:25;18.70;57.50
44477;DHT22;30180;44.788;10.366;2023-02-03T15:00:00;18.70;57.40
44477;DHT22;30180;44.788;10.366;2023-02-03T15:02:30;18.70;57.50
44477;DHT22;30180;44.788;10.366;2023-02-03T15:08:42;18.70;57.40
44477;DHT22;30180;44.788;10.366;2023-02-03T15:11:29;18.70;57.50
44477;DHT22;30180;44.788;10.366;2023-02-03T15:14:23;18.70;58.10
44477;DHT22;30180;44.788;10.366;2023-02-03T15:16:57;18.70;57.60
44477;DHT22;30180;44.788;10.366;2023-02-03T15:19:27;18.70;57.60
44477;DHT22;30180;44.788;10.366;2023-02-03T15:21:56;18.70;57.50
44477;DHT22;30180;44.788;10.366;2023-02-03T15:24:34;18.70;57.70
44477;DHT22;30180;44.788;10.366;2023-02-03T15:27:03;18.70;57.70
44477;DHT22;30180;44.788;10.366;2023-02-03T15:29:33;18.70;57.70
44477;DHT22;30180;44.788;10.366;2023-02-03T15:32:07;18.70;57.60
44477;DHT22;30180;44.788;10.366;2023-02-03T15:34:40;18.70;57.70
44477;DHT22;30180;44.788;10.366;2023-02-03T15:37:16;18.70;57.70
44477;DHT22;30180;44.788;10.366;2023-02-03T15:39:56;18.80;57.70
44477;DHT22;30180;44.788;10.366;2023-02-03T15:42:30;18.80;57.70
44477;DHT22;30180;44.788;10.366;2023-02-03T15:45:04;18.80;57.70
44477;DHT22;30180;44.788;10.366;2023-02-03T15:47:35;18.80;57.80
44477;DHT22;30180;44.788;10.366;2023-02-03T15:50:14;18.80;57.80
44477;DHT22;30180;44.788;10.366;2023-02-03T15:52:44;18.80;57.80
44477;DHT22;30180;44.788;10.366;2023-02-03T15:55:27;18.80;57.80
44477;DHT22;30180;44.788;10.366;2023-02-03T15:57:56;18.80;57.90
44477;DHT22;30180;44.788;10.366;2023-02-03T16:00:32;18.90;57.90
44477;DHT22;30180;44.788;10.366;2023-02-03T16:03:04;18.90;57.90
44477;DHT22;30180;44.788;10.366;2023-02-03T16:05:34;18.90;57.90
44477;DHT22;30180;44.788;10.366;2023-02-03T16:11:28;18.90;57.90
44477;DHT22;30180;44.788;10.366;2023-02-03T16:13:58;18.90;58.00
44477;DHT22;30180;44.788;10.366;2023-02-03T16:16:29;18.90;58.00
44477;DHT22;30180;44.788;10.366;2023-02-03T16:19:00;18.90;57.90